Time;durP1;ratioP1;P1;durP2;ratioP2;P2;SDS_P1;SDS_P2;PMS_P1;PMS_P2;Temp;Humidity;BMP_temperature;BMP_pressure;BME280_temperature;BME280_humidity;BME280_pressure;Samples;Min_cycle;Max_cycle;Signal;HPM_P1;HPM_P2
2020/12/17 00:00:25;;;;;;;15.27;5.93;;;5.50;99.90;;;;;;4900197;29;20064;-94
2020/12/17 00:02:50;;;;;;;15.20;5.93;;;5.40;99.90;;;;;;4900288;29;20087;-94
2020/12/17 00:05:17;;;;;;;14.98;5.93;;;5.40;99.90;;;;;;4900045;29;20066;-94
2020/12/17 00:07:43;;;;;;;11.27;5.40;;;5.40;99.90;;;;;;4899895;29;20039;-94
2020/12/17 00:10:11;;;;;;;22.48;6.60;;;5.50;99.90;;;;;;4899906;29;20032;-94
2020/12/17 00:12:38;;;;;;;12.25;5.28;;;5.40;99.90;;;;;;4899869;29;20032;-94
2020/12/17 00:15:06;;;;;;;19.65;6.22;;;5.40;99.90;;;;;;4899827;29;20046;-95
2020/12/17 00:17:32;;;;;;;17.60;5.40;;;5.40;99.90;;;;;;4898663;29;20032;-94
2020/12/17 00:19:58;;;;;;;16.80;5.60;;;5.40;99.90;;;;;;4916408;29;20036;-94
2020/12/17 00:22:24;;;;;;;13.77;4.63;;;5.40;99.90;;;;;;4899217;29;20076;-94
2020/12/17 00:24:50;;;;;;;10.57;4.82;;;5.40;99.90;;;;;;4899508;29;20060;-95
2020/12/17 00:27:15;;;;;;;13.52;4.97;;;5.40;99.90;;;;;;4899473;29;20036;-94
2020/12/17 00:29:42;;;;;;;15.00;5.60;;;5.40;99.90;;;;;;4900226;29;20024;-94
2020/12/17 00:32:08;;;;;;;14.77;5.18;;;5.40;99.90;;;;;;4901868;29;20032;-94
2020/12/17 00:34:33;;;;;;;16.98;4.32;;;5.40;99.90;;;;;;4903134;29;20028;-94
2020/12/17 00:36:59;;;;;;;10.38;4.63;;;5.40;99.90;;;;;;4904604;29;20039;-94
2020/12/17 00:39:25;;;;;;;23.95;5.57;;;5.40;99.90;;;;;;4907633;29;20055;-94
2020/12/17 00:41:50;;;;;;;10.05;4.47;;;5.40;99.90;;;;;;4914323;29;20058;-94
2020/12/17 00:44:16;;;;;;;17.13;7.30;;;5.40;99.90;;;;;;4908642;29;20036;-94
2020/12/17 00:46:41;;;;;;;16.13;6.35;;;5.40;99.90;;;;;;4916559;29;20038;-94
2020/12/17 00:49:07;;;;;;;16.13;6.10;;;5.30;99.90;;;;;;4900120;29;20037;-95
2020/12/17 00:51:32;;;;;;;13.48;5.70;;;5.30;99.90;;;;;;4899704;29;20036;-94
2020/12/17 00:53:58;;;;;;;20.65;6.20;;;5.30;99.90;;;;;;4900742;29;20032;-94
2020/12/17 00:56:24;;;;;;;8.38;4.47;;;5.30;99.90;;;;;;4901490;29;20036;-94
2020/12/17 00:58:49;;;;;;;14.57;6.15;;;5.30;99.90;;;;;;4901856;29;20505;-94
2020/12/17 01:01:15;;;;;;;18.50;9.38;;;5.30;99.90;;;;;;4907948;29;20032;-94
2020/12/17 01:03:41;;;;;;;24.67;9.02;;;5.20;99.90;;;;;;4920261;29;20015;-94
2020/12/17 01:06:10;;;;;;;21.95;8.93;;;5.30;99.90;;;;;;4921626;29;20020;-94
2020/12/17 01:08:36;;;;;;;20.40;8.00;;;5.30;99.90;;;;;;4939883;29;20024;-94
2020/12/17 01:11:03;;;;;;;25.90;10.57;;;5.20;99.90;;;;;;4917082;29;20128;-94
2020/12/17 01:13:28;;;;;;;24.05;8.63;;;5.30;99.90;;;;;;4904731;29;20568;-95
2020/12/17 01:15:54;;;;;;;16.95;7.20;;;5.30;99.90;;;;;;4920643;29;20063;-94
2020/12/17 01:18:20;;;;;;;20.80;9.60;;;5.30;99.90;;;;;;4901912;29;20047;-94
2020/12/17 01:20:45;;;;;;;11.57;5.53;;;5.30;99.90;;;;;;4918399;29;20036;-94
2020/12/17 01:23:11;;;;;;;21.00;8.65;;;5.30;99.90;;;;;;4901096;29;20079;-93
2020/12/17 01:25:36;;;;;;;29.88;10.70;;;5.30;99.90;;;;;;4901478;29;20036;-93
2020/12/17 01:28:02;;;;;;;23.60;10.30;;;5.30;99.90;;;;;;4918567;29;20485;-93
2020/12/17 01:30:27;;;;;;;23.00;9.48;;;5.30;99.90;;;;;;4921740;29;20028;-93
2020/12/17 01:32:53;;;;;;;22.08;9.43;;;5.40;99.90;;;;;;4904328;29;20104;-94
2020/12/17 01:35:20;;;;;;;26.85;10.38;;;5.40;99.90;;;;;;4904277;29;20028;-94
2020/12/17 01:37:46;;;;;;;20.95;9.32;;;5.40;99.90;;;;;;4904003;29;20119;-93
2020/12/17 01:40:11;;;;;;;20.75;8.80;;;5.40;99.90;;;;;;4904035;29;20126;-94
2020/12/17 01:42:37;;;;;;;14.15;7.78;;;5.40;99.90;;;;;;4904024;29;20036;-94
2020/12/17 01:45:04;;;;;;;19.88;9.90;;;5.40;99.90;;;;;;4904432;29;20112;-94
2020/12/17 01:47:37;;;;;;;18.85;7.18;;;5.40;99.90;;;;;;4903768;29;20091;-93
2020/12/17 01:50:06;;;;;;;21.33;8.50;;;5.40;99.90;;;;;;4903646;29;20060;-94
2020/12/17 01:52:32;;;;;;;18.55;9.15;;;5.40;99.90;;;;;;4903611;29;20024;-94
2020/12/17 01:55:00;;;;;;;25.67;9.75;;;5.40;99.90;;;;;;4904035;29;20100;-93
2020/12/17 01:57:31;;;;;;;22.17;9.85;;;5.40;99.90;;;;;;4903759;29;20062;-94
2020/12/17 02:00:06;;;;;;;32.67;10.05;;;5.40;99.90;;;;;;4903221;29;20099;-94
2020/12/17 02:02:33;;;;;;;21.33;8.93;;;5.40;99.90;;;;;;4903085;29;20032;-94
2020/12/17 02:05:00;;;;;;;21.98;9.10;;;5.40;99.90;;;;;;4903076;29;20154;-94
2020/12/17 02:07:27;;;;;;;16.92;9.20;;;5.50;99.90;;;;;;4902859;29;20028;-94
2020/12/17 02:09:53;;;;;;;19.45;9.05;;;5.50;99.90;;;;;;4902570;29;20040;-94
2020/12/17 02:12:19;;;;;;;18.10;8.52;;;5.50;99.90;;;;;;4903603;29;20024;-94
2020/12/17 02:14:44;;;;;;;18.92;8.93;;;5.50;99.90;;;;;;4905849;29;20035;-94
2020/12/17 02:17:10;;;;;;;23.02;8.95;;;5.50;99.90;;;;;;4917077;29;20106;-94
2020/12/17 02:19:36;;;;;;;22.90;9.45;;;5.50;99.90;;;;;;4903813;29;20028;-92
2020/12/17 02:22:02;;;;;;;24.00;9.45;;;5.50;99.90;;;;;;4902842;29;20048;-94
2020/12/17 02:24:27;;;;;;;23.40;9.32;;;5.50;99.90;;;;;;4902916;29;20028;-93
2020/12/17 02:26:53;;;;;;;24.15;8.43;;;5.50;99.90;;;;;;4902922;29;20039;-94
2020/12/17 02:29:19;;;;;;;20.60;8.25;;;5.50;99.90;;;;;;4902418;29;20118;-94
2020/12/17 02:31:45;;;;;;;16.88;8.70;;;5.40;99.90;;;;;;4901908;29;20024;-93
2020/12/17 02:34:13;;;;;;;20.10;9.73;;;5.50;99.90;;;;;;4901945;29;20032;-94
2020/12/17 02:36:39;;;;;;;19.13;9.45;;;5.40;99.90;;;;;;4901908;29;20024;-93
2020/12/17 02:39:04;;;;;;;24.65;9.32;;;5.50;99.90;;;;;;4901674;29;20062;-93
2020/12/17 02:41:30;;;;;;;19.52;7.57;;;5.50;99.90;;;;;;4901297;29;20051;-92
2020/12/17 02:43:56;;;;;;;20.30;6.70;;;5.40;99.90;;;;;;4901774;29;20035;-94
2020/12/17 02:46:21;;;;;;;21.65;7.03;;;5.50;99.90;;;;;;4901529;29;20040;-93
2020/12/17 02:48:51;;;;;;;16.05;7.53;;;5.50;99.90;;;;;;4901178;29;20557;-93
2020/12/17 02:51:18;;;;;;;19.17;7.20;;;5.60;99.90;;;;;;4901428;29;20122;-94
2020/12/17 02:53:44;;;;;;;19.83;7.97;;;5.60;99.90;;;;;;4901251;29;20040;-94
2020/12/17 02:56:12;;;;;;;24.90;7.88;;;5.60;99.90;;;;;;4901135;29;20051;-93
2020/12/17 02:58:38;;;;;;;16.85;6.78;;;5.70;99.90;;;;;;4901151;29;20028;-93
2020/12/17 03:01:04;;;;;;;15.68;7.15;;;5.70;99.90;;;;;;4901111;29;20063;-94
2020/12/17 03:03:30;;;;;;;19.83;7.15;;;5.70;99.90;;;;;;4900774;29;20028;-94
2020/12/17 03:05:56;;;;;;;19.42;7.03;;;5.70;99.90;;;;;;4900641;29;20039;-94
2020/12/17 03:08:22;;;;;;;14.52;6.65;;;5.70;99.90;;;;;;4900397;29;20175;-94
2020/12/17 03:10:47;;;;;;;16.35;6.70;;;5.80;99.90;;;;;;4900567;29;20040;-94
2020/12/17 03:13:13;;;;;;;17.08;7.00;;;5.80;99.90;;;;;;4900392;29;20078;-94
2020/12/17 03:15:38;;;;;;;20.58;6.72;;;5.80;99.90;;;;;;4900222;29;20120;-93
2020/12/17 03:18:04;;;;;;;22.42;7.30;;;5.80;99.90;;;;;;4900055;29;20084;-93
2020/12/17 03:20:30;;;;;;;12.70;7.78;;;5.90;99.90;;;;;;4900321;29;20048;-93
2020/12/17 03:22:55;;;;;;;19.23;7.40;;;5.90;99.90;;;;;;4896379;29;20053;-93
2020/12/17 03:25:21;;;;;;;22.52;6.30;;;6.00;99.90;;;;;;4900388;29;20039;-94
2020/12/17 03:27:46;;;;;;;16.75;6.72;;;6.00;99.90;;;;;;4900585;29;20032;-93
2020/12/17 03:30:12;;;;;;;21.92;7.28;;;6.00;99.90;;;;;;4900513;29;20177;-94
2020/12/17 03:32:38;;;;;;;21.25;7.70;;;6.00;99.90;;;;;;4900454;29;20051;-94
2020/12/17 03:35:03;;;;;;;15.10;6.63;;;6.00;99.90;;;;;;4900390;29;20038;-94
2020/12/17 03:37:29;;;;;;;20.40;6.53;;;6.10;99.90;;;;;;4900205;29;20032;-93
2020/12/17 03:39:55;;;;;;;19.67;7.22;;;6.00;99.90;;;;;;4900033;29;20094;-94
2020/12/17 03:42:20;;;;;;;15.30;6.40;;;6.00;99.90;;;;;;4900106;29;20043;-94
2020/12/17 03:44:46;;;;;;;16.88;6.13;;;6.00;99.90;;;;;;4900989;29;20043;-93
2020/12/17 03:47:12;;;;;;;12.52;5.95;;;6.00;99.90;;;;;;4900071;29;20082;-94
2020/12/17 03:49:38;;;;;;;15.60;5.85;;;6.00;99.90;;;;;;4899950;29;20051;-94
2020/12/17 03:52:03;;;;;;;14.95;5.78;;;6.10;99.90;;;;;;4899856;29;20118;-93
2020/12/17 03:54:29;;;;;;;14.88;6.05;;;6.00;99.90;;;;;;4899792;29;20141;-93
2020/12/17 03:56:54;;;;;;;15.48;5.90;;;6.00;99.90;;;;;;4899929;29;20530;-93
2020/12/17 03:59:20;;;;;;;13.25;5.35;;;6.00;99.90;;;;;;4900003;29;20060;-93
2020/12/17 04:01:46;;;;;;;16.85;5.32;;;6.00;99.90;;;;;;4900156;29;20130;-93
2020/12/17 04:04:11;;;;;;;12.13;4.43;;;6.00;99.90;;;;;;4900096;29;20501;-94
2020/12/17 04:06:37;;;;;;;14.15;5.43;;;6.00;99.90;;;;;;4899877;29;20032;-93
2020/12/17 04:09:03;;;;;;;21.50;6.63;;;6.10;99.90;;;;;;4899795;29;20035;-94
2020/12/17 04:11:28;;;;;;;16.85;5.32;;;6.10;99.90;;;;;;4900342;29;20032;-94
2020/12/17 04:13:54;;;;;;;21.83;5.80;;;6.10;99.90;;;;;;4901322;29;20028;-94
2020/12/17 04:16:19;;;;;;;15.07;5.47;;;6.10;99.90;;;;;;4901573;29;20553;-94
2020/12/17 04:18:45;;;;;;;12.23;5.85;;;6.00;99.90;;;;;;4901961;29;20463;-93
2020/12/17 04:21:11;;;;;;;14.90;7.35;;;6.10;99.90;;;;;;4901900;29;20040;-94
2020/12/17 04:23:36;;;;;;;17.42;6.15;;;6.00;99.90;;;;;;4906821;29;20041;-93
2020/12/17 04:26:02;;;;;;;15.27;4.97;;;6.10;99.90;;;;;;4923390;29;20076;-93
2020/12/17 04:28:28;;;;;;;10.45;4.68;;;6.00;99.90;;;;;;4923800;29;20056;-94
2020/12/17 04:30:54;;;;;;;9.57;5.05;;;6.00;99.90;;;;;;4924074;29;20036;-93
2020/12/17 04:33:20;;;;;;;17.75;5.13;;;6.10;99.90;;;;;;4922366;29;20059;-94
2020/12/17 04:35:46;;;;;;;9.88;4.50;;;6.00;99.90;;;;;;4905692;29;20449;-94
2020/12/17 04:38:12;;;;;;;12.13;4.68;;;6.10;99.90;;;;;;4902355;29;20032;-94
2020/12/17 04:40:37;;;;;;;12.85;6.18;;;6.00;99.90;;;;;;4902087;29;20505;-94
2020/12/17 04:43:03;;;;;;;14.25;5.05;;;6.10;99.90;;;;;;4900331;29;20027;-94
2020/12/17 04:45:29;;;;;;;10.23;4.80;;;6.00;99.90;;;;;;4900312;29;20112;-93
2020/12/17 04:47:57;;;;;;;14.60;4.53;;;6.10;99.90;;;;;;4899691;29;20034;-93
2020/12/17 04:50:25;;;;;;;14.52;5.10;;;6.10;99.90;;;;;;4899820;29;20044;-94
2020/12/17 04:52:52;;;;;;;16.00;5.68;;;6.00;99.90;;;;;;4899809;29;20042;-94
2020/12/17 04:55:19;;;;;;;13.20;5.82;;;6.10;99.90;;;;;;4899766;29;20024;-94
2020/12/17 04:57:46;;;;;;;12.73;5.90;;;6.00;99.90;;;;;;4899285;29;20102;-93
2020/12/17 05:00:13;;;;;;;13.93;5.43;;;6.00;99.90;;;;;;4897653;29;20098;-93
2020/12/17 05:02:45;;;;;;;12.48;5.30;;;6.00;99.90;;;;;;4916683;29;20119;-94
2020/12/17 05:05:12;;;;;;;13.77;4.88;;;6.00;99.90;;;;;;4903640;29;20032;-94
2020/12/17 05:07:38;;;;;;;10.43;5.18;;;6.00;99.90;;;;;;4902934;29;20059;-93
2020/12/17 05:10:04;;;;;;;13.68;4.18;;;6.00;99.90;;;;;;4903087;29;20028;-94
2020/12/17 05:12:30;;;;;;;14.90;4.22;;;5.90;99.90;;;;;;4903792;29;20043;-94
2020/12/17 05:14:56;;;;;;;9.50;4.07;;;6.00;99.90;;;;;;4903338;29;20028;-93
2020/12/17 05:17:22;;;;;;;8.38;4.13;;;6.00;99.90;;;;;;4902783;29;20024;-94
2020/12/17 05:19:49;;;;;;;8.82;4.30;;;6.00;99.90;;;;;;4902877;29;20493;-94
2020/12/17 05:22:17;;;;;;;9.55;4.22;;;6.00;99.90;;;;;;4902660;29;20075;-93
2020/12/17 05:24:44;;;;;;;10.35;4.60;;;6.00;99.90;;;;;;4902946;29;20048;-93
2020/12/17 05:27:10;;;;;;;10.25;4.45;;;6.00;99.90;;;;;;4902768;29;20095;-93
2020/12/17 05:29:41;;;;;;;14.63;4.32;;;6.00;99.90;;;;;;4902762;29;20028;-92
2020/12/17 05:32:08;;;;;;;15.40;3.88;;;6.00;99.90;;;;;;4902571;29;20020;-94
2020/12/17 05:34:35;;;;;;;10.45;4.25;;;6.00;99.90;;;;;;4902370;29;20028;-93
2020/12/17 05:37:01;;;;;;;16.05;4.45;;;6.00;99.90;;;;;;4902718;29;20120;-94
2020/12/17 05:39:28;;;;;;;10.38;4.50;;;6.00;99.90;;;;;;4902715;29;20035;-93
2020/12/17 05:41:55;;;;;;;14.75;3.95;;;6.10;99.90;;;;;;4902312;29;20055;-93
2020/12/17 05:44:26;;;;;;;13.35;4.10;;;6.00;99.90;;;;;;4902545;29;20036;-94
2020/12/17 05:46:51;;;;;;;;;;;6.10;99.90;;;;;;4903252;29;20039;-93
2020/12/17 05:49:23;;;;;;;5.93;2.63;;;6.00;99.90;;;;;;4902788;29;19923;-93
2020/12/17 05:51:51;;;;;;;8.05;3.45;;;6.00;99.90;;;;;;4902845;29;20068;-94
2020/12/17 05:54:25;;;;;;;11.18;3.45;;;6.00;99.90;;;;;;4902972;29;20092;-93
2020/12/17 05:57:12;;;;;;;12.15;4.72;;;6.00;99.90;;;;;;4902744;29;20032;-94
2020/12/17 05:59:38;;;;;;;7.88;3.50;;;6.10;99.90;;;;;;4902653;29;20566;-94
2020/12/17 06:02:24;;;;;;;9.15;3.50;;;6.10;99.90;;;;;;4903010;29;20095;-93
2020/12/17 06:05:07;;;;;;;10.73;3.78;;;6.10;99.90;;;;;;4903314;29;20052;-93
2020/12/17 06:07:40;;;;;;;12.30;3.85;;;6.00;99.90;;;;;;4903481;29;20652;-94
2020/12/17 06:10:07;;;;;;;15.18;5.28;;;6.10;99.90;;;;;;4902698;29;20025;-94
2020/12/17 06:12:34;;;;;;;7.78;3.95;;;6.00;99.90;;;;;;4903296;29;20461;-93
2020/12/17 06:15:05;;;;;;;8.35;3.83;;;6.00;99.90;;;;;;4902787;29;20123;-94
2020/12/17 06:17:38;;;;;;;12.52;3.70;;;6.00;99.90;;;;;;4902890;29;20032;-94
2020/12/17 06:20:05;;;;;;;8.60;3.67;;;6.00;99.90;;;;;;4901253;29;20029;-93
2020/12/17 06:22:32;;;;;;;9.18;3.80;;;6.00;99.90;;;;;;4899836;29;20141;-94
2020/12/17 06:24:59;;;;;;;6.53;3.55;;;6.00;99.90;;;;;;4900204;29;20051;-94
2020/12/17 06:27:35;;;;;;;12.63;3.78;;;6.00;99.90;;;;;;4900440;29;20059;-94
2020/12/17 06:30:06;;;;;;;9.55;3.60;;;6.00;99.90;;;;;;4900511;29;20028;-95
2020/12/17 06:32:36;;;;;;;14.88;3.20;;;6.00;99.90;;;;;;4898881;29;20030;-93
2020/12/17 06:35:28;;;;;;;14.10;3.35;;;6.00;99.90;;;;;;4902163;29;20028;-93
2020/12/17 06:37:55;;;;;;;11.30;3.15;;;6.00;99.90;;;;;;4889649;29;20047;-94
2020/12/17 06:40:27;;;;;;;10.10;3.22;;;6.00;99.90;;;;;;4902080;29;20099;-94
2020/12/17 06:42:52;;;;;;;9.35;3.35;;;5.90;99.90;;;;;;4899207;29;20032;-94
2020/12/17 06:45:32;;;;;;;6.78;2.92;;;6.00;99.90;;;;;;4901329;29;20031;-92
2020/12/17 06:47:58;;;;;;;11.10;2.65;;;6.00;99.90;;;;;;4901434;29;20036;-93
2020/12/17 06:50:30;;;;;;;10.93;3.70;;;5.90;99.90;;;;;;4900743;29;20147;-93
2020/12/17 06:53:12;;;;;;;9.77;2.72;;;5.90;99.90;;;;;;4899245;29;20036;-95
2020/12/17 06:55:41;;;;;;;10.98;3.13;;;5.90;99.90;;;;;;4894381;29;20115;-94
2020/12/17 06:58:16;;;;;;;9.23;3.33;;;5.90;99.90;;;;;;4900682;29;20024;-95
2020/12/17 07:00:41;;;;;;;10.85;3.55;;;5.90;99.90;;;;;;4900866;29;20039;-94
2020/12/17 07:03:07;;;;;;;11.05;3.70;;;5.90;99.90;;;;;;4900342;29;20036;-94
2020/12/17 07:05:33;;;;;;;12.15;2.47;;;5.90;99.90;;;;;;4900228;29;20470;-94
2020/12/17 07:07:59;;;;;;;10.50;3.05;;;5.90;99.90;;;;;;4901042;29;20471;-95
2020/12/17 07:10:30;;;;;;;10.15;3.42;;;5.90;99.90;;;;;;4900981;29;20028;-94
2020/12/17 07:12:56;;;;;;;13.57;2.97;;;5.90;99.90;;;;;;4900966;29;20052;-94
2020/12/17 07:15:34;;;;;;;7.82;2.13;;;5.90;99.90;;;;;;4900723;29;20063;-94
2020/12/17 07:18:25;;;;;;;6.35;2.55;;;5.80;99.90;;;;;;4899571;29;20091;-94
2020/12/17 07:21:08;;;;;;;7.00;2.70;;;5.80;99.90;;;;;;4898033;29;20039;-94
2020/12/17 07:23:35;;;;;;;7.93;2.45;;;5.80;99.90;;;;;;4897133;29;20213;-94
2020/12/17 07:26:14;;;;;;;7.68;2.72;;;5.80;99.90;;;;;;4899046;29;20028;-94
2020/12/17 07:28:40;;;;;;;9.32;3.00;;;5.80;99.90;;;;;;4897774;29;20114;-94
2020/12/17 07:31:07;;;;;;;9.82;2.60;;;5.80;99.90;;;;;;4899222;29;20024;-95
2020/12/17 07:33:39;;;;;;;14.07;4.15;;;5.80;99.90;;;;;;4896871;29;20079;-95
2020/12/17 07:36:08;;;;;;;11.10;3.40;;;5.80;99.90;;;;;;4900260;29;20056;-94
2020/12/17 07:38:34;;;;;;;12.35;3.63;;;5.80;99.90;;;;;;4898313;29;20111;-93
2020/12/17 07:41:00;;;;;;;11.48;3.65;;;5.80;99.90;;;;;;4902873;29;20052;-93
2020/12/17 07:43:42;;;;;;;13.02;4.20;;;5.80;99.90;;;;;;4901011;29;20020;-94
2020/12/17 07:46:08;;;;;;;14.90;3.00;;;5.70;99.90;;;;;;4902229;29;20123;-94
2020/12/17 07:48:51;;;;;;;7.93;2.95;;;5.70;99.90;;;;;;4901525;29;20036;-94
2020/12/17 07:51:16;;;;;;;9.27;2.97;;;5.70;99.90;;;;;;4918723;29;20052;-94
2020/12/17 07:53:43;;;;;;;9.23;3.00;;;5.60;99.90;;;;;;4922296;29;20024;-93
2020/12/17 07:56:09;;;;;;;9.40;3.03;;;5.60;99.90;;;;;;4913662;29;20028;-94
2020/12/17 07:58:36;;;;;;;7.22;2.60;;;5.60;99.90;;;;;;4920578;29;20493;-94
2020/12/17 08:01:03;;;;;;;11.13;3.00;;;5.50;99.90;;;;;;4901940;29;20269;-94
2020/12/17 08:03:31;;;;;;;11.55;3.45;;;5.50;99.90;;;;;;4900967;29;20044;-94
2020/12/17 08:06:05;;;;;;;11.23;2.88;;;5.50;99.90;;;;;;4918522;29;20036;-94
2020/12/17 08:08:31;;;;;;;9.93;3.10;;;5.50;99.90;;;;;;4915139;29;20486;-94
2020/12/17 08:10:57;;;;;;;8.50;2.78;;;5.40;99.90;;;;;;4909530;29;20028;-95
2020/12/17 08:13:24;;;;;;;5.75;2.90;;;5.50;99.90;;;;;;4922356;29;20154;-95
2020/12/17 08:15:57;;;;;;;10.85;3.10;;;5.40;99.90;;;;;;4905318;29;20028;-95
2020/12/17 08:18:23;;;;;;;7.82;2.83;;;5.50;99.90;;;;;;4920629;29;20026;-95
2020/12/17 08:21:06;;;;;;;16.67;3.40;;;5.40;99.90;;;;;;4922211;29;20068;-94
2020/12/17 08:23:36;;;;;;;9.30;2.22;;;5.50;99.90;;;;;;4921266;29;20047;-95
2020/12/17 08:26:04;;;;;;;17.10;4.45;;;5.50;99.90;;;;;;4924633;29;20127;-95
2020/12/17 08:28:35;;;;;;;8.60;3.05;;;5.50;99.90;;;;;;4913593;29;20036;-95
2020/12/17 08:31:05;;;;;;;10.80;2.67;;;5.40;99.90;;;;;;4915385;29;20028;-96
2020/12/17 08:33:32;;;;;;;10.20;2.50;;;5.40;99.90;;;;;;4928739;29;20035;-94
2020/12/17 08:36:25;;;;;;;7.50;2.38;;;5.40;99.90;;;;;;4913831;29;20035;-95
2020/12/17 08:39:07;;;;;;;14.80;3.15;;;5.40;99.90;;;;;;4910613;29;20067;-95
2020/12/17 08:41:48;;;;;;;12.52;2.83;;;5.50;99.90;;;;;;4911992;29;20054;-95
2020/12/17 08:44:18;;;;;;;11.32;3.60;;;5.50;99.90;;;;;;4910527;29;20020;-94
2020/12/17 08:46:51;;;;;;;13.32;3.13;;;5.40;99.90;;;;;;4907715;29;20036;-95
2020/12/17 08:49:19;;;;;;;10.38;3.17;;;5.40;99.90;;;;;;4914549;29;20067;-95
2020/12/17 08:51:46;;;;;;;6.72;2.45;;;5.40;99.90;;;;;;4909470;29;20036;-95
2020/12/17 08:54:26;;;;;;;17.95;5.05;;;5.40;99.90;;;;;;4909526;29;20055;-94
2020/12/17 08:56:59;;;;;;;8.20;2.95;;;5.40;99.90;;;;;;4911733;29;20573;-95
2020/12/17 08:59:25;;;;;;;6.93;2.83;;;5.40;99.90;;;;;;4912387;29;20040;-94
2020/12/17 09:01:51;;;;;;;8.63;3.17;;;5.40;99.90;;;;;;4910298;29;20108;-96
2020/12/17 09:04:16;;;;;;;10.35;2.70;;;5.40;99.90;;;;;;4923780;29;20040;-95
2020/12/17 09:06:51;;;;;;;5.40;2.70;;;5.40;99.90;;;;;;4910716;29;20039;-95
2020/12/17 09:09:25;;;;;;;10.98;3.38;;;5.40;99.90;;;;;;4908652;29;20039;-95
2020/12/17 09:11:53;;;;;;;8.73;2.72;;;5.40;99.90;;;;;;4907639;29;20036;-94
2020/12/17 09:14:26;;;;;;;14.63;3.10;;;5.40;99.90;;;;;;4905498;29;20039;-94
2020/12/17 09:16:52;;;;;;;9.88;3.35;;;5.50;99.90;;;;;;4906951;29;20032;-95
2020/12/17 09:19:17;;;;;;;9.43;2.88;;;5.50;99.90;;;;;;4924843;29;20031;-95
2020/12/17 09:22:00;;;;;;;8.68;3.50;;;5.50;99.90;;;;;;4924929;29;20513;-95
2020/12/17 09:24:26;;;;;;;10.60;3.35;;;5.50;99.90;;;;;;4907321;29;20036;-95
2020/12/17 09:26:52;;;;;;;9.25;2.50;;;5.60;99.90;;;;;;4925096;29;20052;-95
2020/12/17 09:29:17;;;;;;;13.23;2.58;;;5.60;99.90;;;;;;4923545;29;20028;-95
2020/12/17 09:31:44;;;;;;;7.00;2.25;;;5.70;99.90;;;;;;4903248;29;20086;-96
2020/12/17 09:34:13;;;;;;;9.10;2.33;;;5.70;99.90;;;;;;4906834;29;20059;-95
2020/12/17 09:36:41;;;;;;;9.18;3.50;;;5.70;99.90;;;;;;4905911;29;20021;-95
2020/12/17 09:39:14;;;;;;;7.68;2.42;;;5.80;99.90;;;;;;4907482;29;20080;-95
2020/12/17 09:41:51;;;;;;;6.63;2.20;;;5.80;99.90;;;;;;4906277;29;20048;-95
2020/12/17 09:44:35;;;;;;;8.20;2.28;;;5.90;99.90;;;;;;4923234;29;20089;-95
2020/12/17 09:47:02;;;;;;;6.15;1.90;;;6.00;99.90;;;;;;4922307;29;20036;-95
2020/12/17 09:49:33;;;;;;;10.50;2.60;;;6.10;99.90;;;;;;4927962;29;20044;-96
2020/12/17 09:52:00;;;;;;;;;;;6.30;99.90;;;;;;4917088;29;20056;-96
2020/12/17 09:54:26;;;;;;;16.55;2.83;;;6.50;99.90;;;;;;4914980;29;19934;-94
2020/12/17 09:57:13;;;;;;;11.02;2.47;;;6.70;99.90;;;;;;4910525;29;20039;-95
2020/12/17 09:59:42;;;;;;;4.32;2.08;;;6.90;99.90;;;;;;4911755;29;20033;-95
2020/12/17 10:02:11;;;;;;;8.90;2.40;;;7.20;99.90;;;;;;4906795;29;20051;-94
2020/12/17 10:04:37;;;;;;;7.40;2.33;;;7.50;99.90;;;;;;4905652;29;20505;-94
2020/12/17 10:07:03;;;;;;;6.15;2.10;;;7.70;99.90;;;;;;4907909;29;20028;-94
2020/12/17 10:09:29;;;;;;;7.28;1.65;;;8.00;99.90;;;;;;4907198;29;20120;-94
2020/12/17 10:11:56;;;;;;;6.57;2.10;;;8.30;99.90;;;;;;4907184;29;20064;-95
2020/12/17 10:14:23;;;;;;;6.28;1.92;;;8.40;99.90;;;;;;4903742;29;20087;-95
2020/12/17 10:16:49;;;;;;;11.15;1.98;;;8.60;99.90;;;;;;4920851;29;20036;-96
2020/12/17 10:19:18;;;;;;;6.20;1.60;;;8.90;99.90;;;;;;4903112;29;20028;-95
2020/12/17 10:21:46;;;;;;;5.60;1.10;;;9.10;99.90;;;;;;4902775;29;20036;-95
2020/12/17 10:24:12;;;;;;;5.18;1.00;;;9.30;99.90;;;;;;4904973;29;20081;-91
2020/12/17 10:26:38;;;;;;;5.28;1.40;;;9.50;99.90;;;;;;4907805;29;20114;-95
2020/12/17 10:29:03;;;;;;;4.70;0.82;;;9.70;99.90;;;;;;4920352;29;20040;-95
2020/12/17 10:31:31;;;;;;;2.83;0.77;;;9.90;99.90;;;;;;4887748;29;20092;-94
2020/12/17 10:33:57;;;;;;;6.13;1.38;;;10.00;99.90;;;;;;4919502;29;20024;-96
2020/12/17 10:36:24;;;;;;;5.45;1.08;;;10.20;99.90;;;;;;4927033;29;20111;-95
2020/12/17 10:38:50;;;;;;;5.65;1.30;;;10.20;99.90;;;;;;4889438;29;20040;-95
2020/12/17 10:41:24;;;;;;;8.18;1.45;;;10.40;99.90;;;;;;4920172;29;20043;-94
2020/12/17 10:43:50;;;;;;;9.18;1.30;;;10.60;99.90;;;;;;4903610;29;20035;-95
2020/12/17 10:46:16;;;;;;;7.45;1.40;;;10.60;99.90;;;;;;4902132;29;20028;-95
2020/12/17 10:48:41;;;;;;;8.05;2.08;;;10.80;99.90;;;;;;4918325;29;20426;-95
2020/12/17 10:51:07;;;;;;;4.63;1.20;;;10.90;99.90;;;;;;4902183;29;20048;-96
2020/12/17 10:53:33;;;;;;;13.10;1.63;;;11.10;99.90;;;;;;4905449;29;20025;-95
2020/12/17 10:55:58;;;;;;;7.18;1.55;;;11.30;99.90;;;;;;4923892;29;20039;-95
2020/12/17 10:58:24;;;;;;;9.70;1.95;;;11.40;99.90;;;;;;4909857;29;20016;-95
2020/12/17 11:00:50;;;;;;;10.35;1.50;;;11.50;99.90;;;;;;4919134;29;20032;-95
2020/12/17 11:03:16;;;;;;;7.15;1.40;;;11.60;99.90;;;;;;4915989;29;20052;-94
2020/12/17 11:05:41;;;;;;;9.40;1.63;;;11.70;99.90;;;;;;4910506;29;20470;-95
2020/12/17 11:08:07;;;;;;;9.20;1.67;;;11.70;99.10;;;;;;4905419;29;20043;-95
2020/12/17 11:10:33;;;;;;;8.32;1.10;;;11.70;99.10;;;;;;4929128;29;20028;-95
2020/12/17 11:13:02;;;;;;;8.25;1.30;;;11.80;98.60;;;;;;4930114;29;20031;-96
2020/12/17 11:15:28;;;;;;;7.28;1.83;;;11.80;98.30;;;;;;4935200;29;20035;-96
2020/12/17 11:17:53;;;;;;;7.65;1.30;;;11.80;97.20;;;;;;4929408;29;20029;-93
2020/12/17 11:20:19;;;;;;;11.18;1.70;;;11.80;97.20;;;;;;4935987;29;20040;-94
2020/12/17 11:22:45;;;;;;;8.65;1.55;;;11.90;97.50;;;;;;4926459;29;20035;-95
2020/12/17 11:25:11;;;;;;;4.57;1.17;;;12.00;97.30;;;;;;4915257;29;20023;-94
2020/12/17 11:27:37;;;;;;;7.68;1.30;;;12.20;97.00;;;;;;4907143;29;20478;-94
2020/12/17 11:30:06;;;;;;;7.25;1.50;;;12.40;96.50;;;;;;4903783;29;20032;-95
2020/12/17 11:32:32;;;;;;;5.68;1.42;;;12.50;95.60;;;;;;4905111;29;20060;-95
2020/12/17 11:34:58;;;;;;;8.95;1.60;;;12.50;94.20;;;;;;4920649;29;20583;-94
2020/12/17 11:37:23;;;;;;;6.07;1.13;;;12.40;94.40;;;;;;4921135;29;20036;-95
2020/12/17 11:39:49;;;;;;;10.02;1.50;;;12.40;94.10;;;;;;4919992;29;20537;-94
2020/12/17 11:42:15;;;;;;;7.90;1.35;;;12.40;93.90;;;;;;4903130;29;20044;-95
2020/12/17 11:44:40;;;;;;;9.82;2.00;;;12.50;93.90;;;;;;4902614;29;20051;-95
2020/12/17 11:47:06;;;;;;;4.72;1.45;;;12.60;93.90;;;;;;4902704;29;20481;-96
2020/12/17 11:49:32;;;;;;;11.25;1.42;;;12.70;93.30;;;;;;4905839;29;20104;-95
2020/12/17 11:51:57;;;;;;;14.07;2.60;;;12.80;93.00;;;;;;4917797;29;20028;-95
2020/12/17 11:54:23;;;;;;;7.97;1.52;;;12.90;92.90;;;;;;4919814;29;20023;-95
2020/12/17 11:56:49;;;;;;;5.45;1.05;;;13.10;92.20;;;;;;4918273;29;20033;-95
2020/12/17 11:59:16;;;;;;;7.72;1.27;;;13.10;91.60;;;;;;4900662;29;20024;-94
2020/12/17 12:01:42;;;;;;;9.93;1.70;;;13.10;91.50;;;;;;4900831;29;20051;-95
2020/12/17 12:04:09;;;;;;;7.03;1.38;;;13.20;91.50;;;;;;4918282;29;20036;-95
2020/12/17 12:06:35;;;;;;;6.57;1.17;;;13.20;91.20;;;;;;4887822;29;20044;-95
2020/12/17 12:09:01;;;;;;;8.40;1.40;;;13.30;91.20;;;;;;4917440;29;20039;-95
2020/12/17 12:11:27;;;;;;;11.48;1.60;;;13.50;91.00;;;;;;4917249;29;20395;-96
2020/12/17 12:13:53;;;;;;;7.28;1.67;;;13.60;90.40;;;;;;4900820;29;20486;-94
2020/12/17 12:16:19;;;;;;;14.43;2.70;;;13.70;90.00;;;;;;4917473;29;20510;-95
2020/12/17 12:18:44;;;;;;;7.60;1.45;;;13.80;88.90;;;;;;4917002;29;20024;-95
2020/12/17 12:21:12;;;;;;;4.82;1.23;;;13.90;88.90;;;;;;4936961;29;20059;-96
2020/12/17 12:23:37;;;;;;;10.00;2.38;;;14.00;88.80;;;;;;4936277;29;20027;-96
2020/12/17 12:26:03;;;;;;;6.40;1.98;;;14.20;87.40;;;;;;4927756;29;20110;-94
2020/12/17 12:28:29;;;;;;;7.90;1.30;;;14.30;87.10;;;;;;4900235;29;20036;-95
2020/12/17 12:30:55;;;;;;;8.93;2.10;;;14.70;86.30;;;;;;4902047;29;20066;-94
2020/12/17 12:33:20;;;;;;;7.70;1.30;;;14.80;84.30;;;;;;4903941;29;20036;-96
2020/12/17 12:35:46;;;;;;;5.35;1.42;;;15.00;83.70;;;;;;4900212;29;20080;-94
2020/12/17 12:38:11;;;;;;;6.10;1.52;;;15.10;83.20;;;;;;4899580;29;20044;-94
2020/12/17 12:40:37;;;;;;;7.63;1.55;;;15.30;82.10;;;;;;4899375;29;20379;-95
2020/12/17 12:43:03;;;;;;;8.70;1.95;;;15.40;81.50;;;;;;4916336;29;20058;-95
2020/12/17 12:45:29;;;;;;;5.20;1.30;;;15.50;80.60;;;;;;4916297;29;20024;-95
2020/12/17 12:47:54;;;;;;;6.75;1.65;;;15.70;80.80;;;;;;4916010;29;20024;-94
2020/12/17 12:50:20;;;;;;;7.20;1.50;;;15.90;79.80;;;;;;4915965;29;20060;-94